sensor_id;sensor_type;location;lat;lon;timestamp;temperature;humidity
1800;DHT22;919;48.274;12.292;2023-04-01T00:01:29;8.60;99.90
1800;DHT22;919;48.274;12.292;2023-04-01T00:03:56;8.50;99.90
1800;DHT22;919;48.274;12.292;2023-04-01T00:06:23;8.50;99.90
1800;DHT22;919;48.274;12.292;2023-04-01T00:08:50;8.60;99.90
1800;DHT22;919;48.274;12.292;2023-04-01T00:11:17;8.60;99.90
1800;DHT22;919;48.274;12.292;2023-04-01T00:13:45;8.60;99.90
1800;DHT22;919;48.274;12.292;2023-04-01T00:16:12;8.60;99.90
1800;DHT22;919;48.274;12.292;2023-04-01T00:18:40;8.50;99.90
1800;DHT22;919;48.274;12.292;2023-04-01T00:21:07;8.50;99.90
1800;DHT22;919;48.274;12.292;2023-04-01T00:23:34;8.60;99.90
1800;DHT22;919;48.274;12.292;2023-04-01T00:26:01;8.60;99.90
1800;DHT22;919;48.274;12.292;2023-04-01T00:28:29;8.60;99.90
1800;DHT22;919;48.274;12.292;2023-04-01T00:30:56;8.60;99.90
1800;DHT22;919;48.274;12.292;2023-04-01T00:33:23;8.50;99.90
1800;DHT22;919;48.274;12.292;2023-04-01T00:35:51;8.50;99.90
1800;DHT22;919;48.274;12.292;2023-04-01T00:38:18;8.50;99.90
1800;DHT22;919;48.274;12.292;2023-04-01T00:40:45;8.60;99.90
1800;DHT22;919;48.274;12.292;2023-04-01T00:43:14;8.60;99.90
1800;DHT22;919;48.274;12.292;2023-04-01T00:45:44;8.60;99.90
1800;DHT22;919;48.274;12.292;2023-04-01T00:48:14;8.40;99.90
1800;DHT22;919;48.274;12.292;2023-04-01T00:50:43;8.40;99.90
1800;DHT22;919;48.274;12.292;2023-04-01T00:53:13;8.40;99.90
1800;DHT22;919;48.274;12.292;2023-04-01T00:55:43;8.40;99.90
1800;DHT22;919;48.274;12.292;2023-04-01T00:58:15;8.40;99.90
1800;DHT22;919;48.274;12.292;2023-04-01T01:00:45;8.30;99.90
1800;DHT22;919;48.274;12.292;2023-04-01T01:03:13;8.20;99.90
1800;DHT22;919;48.274;12.292;2023-04-01T01:06:01;8.20;99.90
1800;DHT22;919;48.274;12.292;2023-04-01T01:08:39;8.20;99.90
1800;DHT22;919;48.274;12.292;2023-04-01T01:11:10;8.20;99.90
1800;DHT22;919;48.274;12.292;2023-04-01T01:13:43;8.10;99.90
1800;DHT22;919;48.274;12.292;2023-04-01T01:16:17;8.10;99.90
1800;DHT22;919;48.274;12.292;2023-04-01T01:18:52;8.10;99.90
1800;DHT22;919;48.274;12.292;2023-04-01T01:21:42;8.00;99.90
1800;DHT22;919;48.274;12.292;2023-04-01T01:24:44;8.10;99.90
1800;DHT22;919;48.274;12.292;2023-04-01T01:27:16;8.10;99.90
1800;DHT22;919;48.274;12.292;2023-04-01T01:30:06;8.10;99.90
1800;DHT22;919;48.274;12.292;2023-04-01T01:33:11;8.10;99.90
1800;DHT22;919;48.274;12.292;2023-04-01T01:35:43;8.20;99.90
1800;DHT22;919;48.274;12.292;2023-04-01T01:38:13;8.20;99.90
1800;DHT22;919;48.274;12.292;2023-04-01T01:40:44;8.20;99.90
1800;DHT22;919;48.274;12.292;2023-04-01T01:43:14;8.20;99.90
1800;DHT22;919;48.274;12.292;2023-04-01T01:45:44;8.20;99.90
1800;DHT22;919;48.274;12.292;2023-04-01T01:48:13;8.30;99.90
1800;DHT22;919;48.274;12.292;2023-04-01T01:50:43;8.30;99.90
1800;DHT22;919;48.274;12.292;2023-04-01T01:53:12;8.20;99.90
1800;DHT22;919;48.274;12.292;2023-04-01T01:55:41;8.20;99.90
1800;DHT22;919;48.274;12.292;2023-04-01T01:58:11;8.30;99.90
1800;DHT22;919;48.274;12.292;2023-04-01T02:00:42;8.30;99.90
1800;DHT22;919;48.274;12.292;2023-04-01T02:03:11;8.30;99.90
1800;DHT22;919;48.274;12.292;2023-04-01T02:05:39;8.30;99.90
1800;DHT22;919;48.274;12.292;2023-04-01T02:08:12;8.30;99.90
1800;DHT22;919;48.274;12.292;2023-04-01T02:10:42;8.30;99.90
1800;DHT22;919;48.274;12.292;2023-04-01T02:13:15;8.30;99.90
1800;DHT22;919;48.274;12.292;2023-04-01T02:15:46;8.30;99.90
1800;DHT22;919;48.274;12.292;2023-04-01T02:18:14;8.30;99.90
1800;DHT22;919;48.274;12.292;2023-04-01T02:20:43;8.20;99.90
1800;DHT22;919;48.274;12.292;2023-04-01T02:23:12;8.30;99.90
1800;DHT22;919;48.274;12.292;2023-04-01T02:25:40;8.30;99.90
1800;DHT22;919;48.274;12.292;2023-04-01T02:28:09;8.20;99.90
1800;DHT22;919;48.274;12.292;2023-04-01T02:30:38;8.30;99.90
1800;DHT22;919;48.274;12.292;2023-04-01T02:33:07;8.30;99.90
1800;DHT22;919;48.274;12.292;2023-04-01T02:35:36;8.30;99.90
1800;DHT22;919;48.274;12.292;2023-04-01T02:38:04;8.30;99.90
1800;DHT22;919;48.274;12.292;2023-04-01T02:40:43;8.30;99.90
1800;DHT22;919;48.274;12.292;2023-04-01T02:43:10;8.20;99.90
1800;DHT22;919;48.274;12.292;2023-04-01T02:45:37;8.20;99.90
1800;DHT22;919;48.274;12.292;2023-04-01T02:48:04;8.20;99.90
1800;DHT22;919;48.274;12.292;2023-04-01T02:50:31;8.20;99.90
1800;DHT22;919;48.274;12.292;2023-04-01T02:52:58;8.10;99.90
1800;DHT22;919;48.274;12.292;2023-04-01T02:55:25;8.10;99.90
1800;DHT22;919;48.274;12.292;2023-04-01T02:57:53;8.10;99.90
1800;DHT22;919;48.274;12.292;2023-04-01T03:00:20;8.10;99.90
1800;DHT22;919;48.274;12.292;2023-04-01T03:02:46;8.10;99.90
1800;DHT22;919;48.274;12.292;2023-04-01T03:05:13;8.00;99.90
1800;DHT22;919;48.274;12.292;2023-04-01T03:07:40;8.10;99.90
1800;DHT22;919;48.274;12.292;2023-04-01T03:10:08;8.00;99.90
1800;DHT22;919;48.274;12.292;2023-04-01T03:12:35;8.00;99.90
1800;DHT22;919;48.274;12.292;2023-04-01T03:15:04;8.10;99.90
1800;DHT22;919;48.274;12.292;2023-04-01T03:17:30;8.20;99.90
1800;DHT22;919;48.274;12.292;2023-04-01T03:19:57;8.10;99.90
1800;DHT22;919;48.274;12.292;2023-04-01T03:22:24;8.10;99.90
1800;DHT22;919;48.274;12.292;2023-04-01T03:24:50;8.20;99.90
1800;DHT22;919;48.274;12.292;2023-04-01T03:27:17;8.20;99.90
1800;DHT22;919;48.274;12.292;2023-04-01T03:29:44;8.10;99.90
1800;DHT22;919;48.274;12.292;2023-04-01T03:32:12;8.10;99.90
1800;DHT22;919;48.274;12.292;2023-04-01T03:34:39;8.10;99.90
1800;DHT22;919;48.274;12.292;2023-04-01T03:37:06;8.10;99.90
1800;DHT22;919;48.274;12.292;2023-04-01T03:39:32;8.10;99.90
1800;DHT22;919;48.274;12.292;2023-04-01T03:42:00;8.00;99.90
1800;DHT22;919;48.274;12.292;2023-04-01T03:44:30;8.00;99.90
1800;DHT22;919;48.274;12.292;2023-04-01T03:46:57;8.00;99.90
1800;DHT22;919;48.274;12.292;2023-04-01T03:49:25;8.10;99.90
1800;DHT22;919;48.274;12.292;2023-04-01T03:51:52;8.10;99.90
1800;DHT22;919;48.274;12.292;2023-04-01T03:54:19;8.10;99.90
1800;DHT22;919;48.274;12.292;2023-04-01T03:56:46;8.10;99.90
1800;DHT22;919;48.274;12.292;2023-04-01T03:59:13;8.20;99.90
1800;DHT22;919;48.274;12.292;2023-04-01T04:01:40;8.20;99.90
1800;DHT22;919;48.274;12.292;2023-04-01T04:04:07;8.30;99.90
1800;DHT22;919;48.274;12.292;2023-04-01T04:06:35;8.30;99.90
1800;DHT22;919;48.274;12.292;2023-04-01T04:09:01;8.30;99.90
1800;DHT22;919;48.274;12.292;2023-04-01T04:11:31;8.30;99.90
1800;DHT22;919;48.274;12.292;2023-04-01T04:13:58;8.40;99.90
1800;DHT22;919;48.274;12.292;2023-04-01T04:16:25;8.40;99.90
1800;DHT22;919;48.274;12.292;2023-04-01T04:18:51;8.30;99.90
1800;DHT22;919;48.274;12.292;2023-04-01T04:21:18;8.40;99.90
1800;DHT22;919;48.274;12.292;2023-04-01T04:23:48;8.30;99.90
1800;DHT22;919;48.274;12.292;2023-04-01T04:26:15;8.30;99.90
1800;DHT22;919;48.274;12.292;2023-04-01T04:28:42;8.30;99.90
1800;DHT22;919;48.274;12.292;2023-04-01T04:31:09;8.30;99.90
1800;DHT22;919;48.274;12.292;2023-04-01T04:33:36;8.20;99.90
1800;DHT22;919;48.274;12.292;2023-04-01T04:36:03;8.20;99.90
1800;DHT22;919;48.274;12.292;2023-04-01T04:38:30;8.10;99.90
1800;DHT22;919;48.274;12.292;2023-04-01T04:40:58;8.10;99.90
1800;DHT22;919;48.274;12.292;2023-04-01T04:43:25;8.10;99.90
1800;DHT22;919;48.274;12.292;2023-04-01T04:45:52;8.20;99.90
1800;DHT22;919;48.274;12.292;2023-04-01T04:48:19;8.10;99.90
1800;DHT22;919;48.274;12.292;2023-04-01T04:50:46;8.20;99.90
1800;DHT22;919;48.274;12.292;2023-04-01T04:53:13;8.10;99.90
1800;DHT22;919;48.274;12.292;2023-04-01T04:55:43;8.10;99.90
1800;DHT22;919;48.274;12.292;2023-04-01T04:58:11;8.10;99.90
1800;DHT22;919;48.274;12.292;2023-04-01T05:00:38;8.10;99.90
1800;DHT22;919;48.274;12.292;2023-04-01T05:03:04;8.00;99.90
1800;DHT22;919;48.274;12.292;2023-04-01T05:05:31;8.00;99.90
1800;DHT22;919;48.274;12.292;2023-04-01T05:07:58;8.00;99.90
1800;DHT22;919;48.274;12.292;2023-04-01T05:10:25;8.00;99.90
1800;DHT22;919;48.274;12.292;2023-04-01T05:12:52;8.00;99.90
1800;DHT22;919;48.274;12.292;2023-04-01T05:15:20;7.90;99.90
1800;DHT22;919;48.274;12.292;2023-04-01T05:17:47;7.90;99.90
1800;DHT22;919;48.274;12.292;2023-04-01T05:20:14;7.90;99.90
1800;DHT22;919;48.274;12.292;2023-04-01T05:22:41;8.00;99.90
1800;DHT22;919;48.274;12.292;2023-04-01T05:25:09;8.00;99.90
1800;DHT22;919;48.274;12.292;2023-04-01T05:27:36;7.90;99.90
1800;DHT22;919;48.274;12.292;2023-04-01T05:30:03;8.00;99.90
1800;DHT22;919;48.274;12.292;2023-04-01T05:32:32;8.10;99.90
1800;DHT22;919;48.274;12.292;2023-04-01T05:34:59;8.10;99.90
1800;DHT22;919;48.274;12.292;2023-04-01T05:37:25;8.10;99.90
1800;DHT22;919;48.274;12.292;2023-04-01T05:39:52;8.10;99.90
1800;DHT22;919;48.274;12.292;2023-04-01T05:42:19;8.10;99.90
1800;DHT22;919;48.274;12.292;2023-04-01T05:44:46;8.10;99.90
1800;DHT22;919;48.274;12.292;2023-04-01T05:47:12;8.10;99.90
1800;DHT22;919;48.274;12.292;2023-04-01T05:49:41;8.10;99.90
1800;DHT22;919;48.274;12.292;2023-04-01T05:52:08;8.10;99.90
1800;DHT22;919;48.274;12.292;2023-04-01T05:54:34;8.20;99.90
1800;DHT22;919;48.274;12.292;2023-04-01T05:57:02;8.20;99.90
1800;DHT22;919;48.274;12.292;2023-04-01T05:59:29;8.30;99.90
1800;DHT22;919;48.274;12.292;2023-04-01T06:01:56;8.30;99.90
1800;DHT22;919;48.274;12.292;2023-04-01T06:04:23;8.40;99.90
1800;DHT22;919;48.274;12.292;2023-04-01T06:06:52;8.40;99.90
1800;DHT22;919;48.274;12.292;2023-04-01T06:09:21;8.40;99.90
1800;DHT22;919;48.274;12.292;2023-04-01T06:12:18;8.50;99.90
1800;DHT22;919;48.274;12.292;2023-04-01T06:14:53;8.60;99.90
1800;DHT22;919;48.274;12.292;2023-04-01T06:17:30;8.60;99.90
1800;DHT22;919;48.274;12.292;2023-04-01T06:20:06;8.70;99.90
1800;DHT22;919;48.274;12.292;2023-04-01T06:22:55;8.80;99.90
1800;DHT22;919;48.274;12.292;2023-04-01T06:25:53;8.80;99.90
1800;DHT22;919;48.274;12.292;2023-04-01T06:28:52;8.90;99.90
1800;DHT22;919;48.274;12.292;2023-04-01T06:31:34;8.90;99.90
1800;DHT22;919;48.274;12.292;2023-04-01T06:34:14;9.10;99.90
1800;DHT22;919;48.274;12.292;2023-04-01T06:36:57;9.00;99.90
1800;DHT22;919;48.274;12.292;2023-04-01T06:42:50;9.20;99.90
1800;DHT22;919;48.274;12.292;2023-04-01T06:45:31;9.20;99.90
1800;DHT22;919;48.274;12.292;2023-04-01T06:48:11;9.40;99.90
1800;DHT22;919;48.274;12.292;2023-04-01T06:50:47;9.50;99.90
1800;DHT22;919;48.274;12.292;2023-04-01T06:53:21;9.50;99.90
1800;DHT22;919;48.274;12.292;2023-04-01T06:55:51;9.50;99.90
1800;DHT22;919;48.274;12.292;2023-04-01T06:58:23;9.70;99.90
1800;DHT22;919;48.274;12.292;2023-04-01T07:00:53;9.70;99.90
1800;DHT22;919;48.274;12.292;2023-04-01T07:03:26;9.80;99.90
1800;DHT22;919;48.274;12.292;2023-04-01T07:05:57;9.70;99.90
1800;DHT22;919;48.274;12.292;2023-04-01T07:08:27;9.70;99.90
1800;DHT22;919;48.274;12.292;2023-04-01T07:10:58;9.90;99.90
1800;DHT22;919;48.274;12.292;2023-04-01T07:13:32;10.00;99.90
1800;DHT22;919;48.274;12.292;2023-04-01T07:16:12;10.00;99.90
1800;DHT22;919;48.274;12.292;2023-04-01T07:18:44;10.10;99.90
1800;DHT22;919;48.274;12.292;2023-04-01T07:21:23;10.10;99.90
1800;DHT22;919;48.274;12.292;2023-04-01T07:23:52;10.20;99.90
1800;DHT22;919;48.274;12.292;2023-04-01T07:26:23;10.10;99.90
1800;DHT22;919;48.274;12.292;2023-04-01T07:28:52;10.20;99.90
1800;DHT22;919;48.274;12.292;2023-04-01T07:31:30;10.20;99.90
1800;DHT22;919;48.274;12.292;2023-04-01T07:34:05;10.30;99.90
1800;DHT22;919;48.274;12.292;2023-04-01T07:36:37;10.50;99.90
1800;DHT22;919;48.274;12.292;2023-04-01T07:39:12;10.50;99.90
1800;DHT22;919;48.274;12.292;2023-04-01T07:41:50;10.40;99.90
1800;DHT22;919;48.274;12.292;2023-04-01T07:44:25;10.40;99.90
1800;DHT22;919;48.274;12.292;2023-04-01T07:47:02;10.40;99.90
1800;DHT22;919;48.274;12.292;2023-04-01T07:49:39;10.50;99.90
1800;DHT22;919;48.274;12.292;2023-04-01T07:52:16;10.50;99.90
1800;DHT22;919;48.274;12.292;2023-04-01T07:54:49;10.60;99.90
1800;DHT22;919;48.274;12.292;2023-04-01T07:57:20;10.60;99.90
1800;DHT22;919;48.274;12.292;2023-04-01T07:59:56;10.60;99.90
1800;DHT22;919;48.274;12.292;2023-04-01T08:02:33;10.50;99.90
1800;DHT22;919;48.274;12.292;2023-04-01T08:05:14;10.30;99.90
1800;DHT22;919;48.274;12.292;2023-04-01T08:07:47;10.30;99.90
1800;DHT22;919;48.274;12.292;2023-04-01T08:10:19;10.30;99.90
1800;DHT22;919;48.274;12.292;2023-04-01T08:12:57;10.40;99.90
1800;DHT22;919;48.274;12.292;2023-04-01T08:15:28;10.60;99.90
1800;DHT22;919;48.274;12.292;2023-04-01T08:18:11;10.70;99.90
1800;DHT22;919;48.274;12.292;2023-04-01T08:20:43;10.60;99.90
1800;DHT22;919;48.274;12.292;2023-04-01T08:23:13;10.60;99.90
1800;DHT22;919;48.274;12.292;2023-04-01T08:25:46;10.60;99.90
1800;DHT22;919;48.274;12.292;2023-04-01T08:28:19;10.80;99.90
1800;DHT22;919;48.274;12.292;2023-04-01T08:30:52;10.90;99.90
1800;DHT22;919;48.274;12.292;2023-04-01T08:33:24;11.20;99.90
1800;DHT22;919;48.274;12.292;2023-04-01T08:35:56;11.30;99.90
1800;DHT22;919;48.274;12.292;2023-04-01T08:38:29;11.30;99.90
1800;DHT22;919;48.274;12.292;2023-04-01T08:41:02;11.30;99.90
1800;DHT22;919;48.274;12.292;2023-04-01T08:50:01;11.40;99.90
1800;DHT22;919;48.274;12.292;2023-04-01T08:52:36;11.50;99.90
1800;DHT22;919;48.274;12.292;2023-04-01T08:55:37;11.30;99.90
1800;DHT22;919;48.274;12.292;2023-04-01T08:58:23;11.10;99.90
1800;DHT22;919;48.274;12.292;2023-04-01T09:00:57;11.20;99.90
1800;DHT22;919;48.274;12.292;2023-04-01T09:03:41;11.20;99.90
1800;DHT22;919;48.274;12.292;2023-04-01T09:06:40;11.40;99.90
1800;DHT22;919;48.274;12.292;2023-04-01T09:12:30;11.60;99.90
1800;DHT22;919;48.274;12.292;2023-04-01T09:15:34;11.60;99.90
1800;DHT22;919;48.274;12.292;2023-04-01T09:18:14;11.70;99.90
1800;DHT22;919;48.274;12.292;2023-04-01T09:20:58;11.90;99.90
1800;DHT22;919;48.274;12.292;2023-04-01T09:26:46;11.90;99.90
1800;DHT22;919;48.274;12.292;2023-04-01T09:29:26;11.70;99.90
1800;DHT22;919;48.274;12.292;2023-04-01T09:32:13;11.60;99.90
1800;DHT22;919;48.274;12.292;2023-04-01T09:34:55;11.80;99.90
1800;DHT22;919;48.274;12.292;2023-04-01T09:37:35;11.90;99.90
1800;DHT22;919;48.274;12.292;2023-04-01T09:40:17;12.10;99.90
1800;DHT22;919;48.274;12.292;2023-04-01T09:42:54;12.50;99.90
1800;DHT22;919;48.274;12.292;2023-04-01T09:45:37;12.40;99.90
1800;DHT22;919;48.274;12.292;2023-04-01T09:48:15;12.50;99.90
1800;DHT22;919;48.274;12.292;2023-04-01T09:50:50;12.60;99.90
1800;DHT22;919;48.274;12.292;2023-04-01T09:53:30;12.50;99.90
1800;DHT22;919;48.274;12.292;2023-04-01T09:56:19;12.70;99.90
1800;DHT22;919;48.274;12.292;2023-04-01T09:59:07;13.00;99.90
1800;DHT22;919;48.274;12.292;2023-04-01T10:01:50;13.10;99.90
1800;DHT22;919;48.274;12.292;2023-04-01T10:04:44;12.90;99.90
1800;DHT22;919;48.274;12.292;2023-04-01T10:07:41;12.50;99.90
1800;DHT22;919;48.274;12.292;2023-04-01T10:16:56;12.10;99.90
1800;DHT22;919;48.274;12.292;2023-04-01T10:20:02;12.00;99.90
1800;DHT22;919;48.274;12.292;2023-04-01T10:23:11;11.90;99.90
1800;DHT22;919;48.274;12.292;2023-04-01T10:26:23;11.90;99.90
1800;DHT22;919;48.274;12.292;2023-04-01T10:29:10;11.80;99.90
1800;DHT22;919;48.274;12.292;2023-04-01T10:32:32;11.80;99.90
1800;DHT22;919;48.274;12.292;2023-04-01T10:39:06;11.70;99.90
1800;DHT22;919;48.274;12.292;2023-04-01T10:41:59;11.70;99.90
1800;DHT22;919;48.274;12.292;2023-04-01T10:45:03;11.70;99.90
1800;DHT22;919;48.274;12.292;2023-04-01T10:48:13;11.80;99.90
1800;DHT22;919;48.274;12.292;2023-04-01T10:51:10;11.80;99.90
1800;DHT22;919;48.274;12.292;2023-04-01T10:54:07;11.70;99.90
1800;DHT22;919;48.274;12.292;2023-04-01T10:56:45;11.60;99.90
1800;DHT22;919;48.274;12.292;2023-04-01T11:12:03;11.60;99.90
1800;DHT22;919;48.274;12.292;2023-04-01T11:17:59;11.70;99.90
1800;DHT22;919;48.274;12.292;2023-04-01T11:26:37;11.50;99.90
1800;DHT22;919;48.274;12.292;2023-04-01T11:29:19;11.40;99.90
1800;DHT22;919;48.274;12.292;2023-04-01T11:31:58;11.40;99.90
1800;DHT22;919;48.274;12.292;2023-04-01T11:34:39;11.40;99.90
1800;DHT22;919;48.274;12.292;2023-04-01T11:37:19;11.50;99.90
1800;DHT22;919;48.274;12.292;2023-04-01T11:39:59;11.50;99.90
1800;DHT22;919;48.274;12.292;2023-04-01T11:42:35;11.50;99.90
1800;DHT22;919;48.274;12.292;2023-04-01T11:45:19;11.60;99.90
1800;DHT22;919;48.274;12.292;2023-04-01T11:48:07;11.60;99.90
1800;DHT22;919;48.274;12.292;2023-04-01T11:50:52;11.50;99.90
1800;DHT22;919;48.274;12.292;2023-04-01T11:53:36;11.30;99.90
1800;DHT22;919;48.274;12.292;2023-04-01T11:56:26;11.20;99.90
1800;DHT22;919;48.274;12.292;2023-04-01T12:02:09;10.90;99.90
1800;DHT22;919;48.274;12.292;2023-04-01T12:04:58;10.90;99.90
1800;DHT22;919;48.274;12.292;2023-04-01T12:07:43;10.90;99.90
1800;DHT22;919;48.274;12.292;2023-04-01T12:10:18;11.00;99.90
1800;DHT22;919;48.274;12.292;2023-04-01T12:12:52;11.10;99.90
1800;DHT22;919;48.274;12.292;2023-04-01T12:15:29;11.00;99.90
1800;DHT22;919;48.274;12.292;2023-04-01T12:18:04;10.90;99.90
1800;DHT22;919;48.274;12.292;2023-04-01T12:20:48;10.80;99.90
1800;DHT22;919;48.274;12.292;2023-04-01T12:23:30;10.70;99.90
1800;DHT22;919;48.274;12.292;2023-04-01T12:26:12;10.60;99.90
1800;DHT22;919;48.274;12.292;2023-04-01T12:28:49;10.50;99.90
1800;DHT22;919;48.274;12.292;2023-04-01T12:31:31;10.20;99.90
1800;DHT22;919;48.274;12.292;2023-04-01T12:37:12;10.00;99.90
1800;DHT22;919;48.274;12.292;2023-04-01T12:39:56;10.00;99.90
1800;DHT22;919;48.274;12.292;2023-04-01T12:42:42;10.00;99.90
1800;DHT22;919;48.274;12.292;2023-04-01T12:45:29;10.00;99.90
1800;DHT22;919;48.274;12.292;2023-04-01T12:56:58;10.20;99.90
1800;DHT22;919;48.274;12.292;2023-04-01T12:59:45;10.00;99.90
1800;DHT22;919;48.274;12.292;2023-04-01T13:02:26;9.70;99.90
1800;DHT22;919;48.274;12.292;2023-04-01T13:05:18;9.60;99.90
1800;DHT22;919;48.274;12.292;2023-04-01T13:08:04;9.70;99.90
1800;DHT22;919;48.274;12.292;2023-04-01T13:10:50;9.70;99.90
1800;DHT22;919;48.274;12.292;2023-04-01T13:13:46;9.80;99.90
1800;DHT22;919;48.274;12.292;2023-04-01T13:16:20;9.80;99.90
1800;DHT22;919;48.274;12.292;2023-04-01T13:18:57;9.80;99.90
1800;DHT22;919;48.274;12.292;2023-04-01T13:21:33;9.70;99.90
1800;DHT22;919;48.274;12.292;2023-04-01T13:24:13;9.70;99.90
1800;DHT22;919;48.274;12.292;2023-04-01T13:26:55;9.80;99.90
1800;DHT22;919;48.274;12.292;2023-04-01T13:29:27;9.90;99.90
1800;DHT22;919;48.274;12.292;2023-04-01T13:32:05;10.10;99.90
1800;DHT22;919;48.274;12.292;2023-04-01T13:34:46;10.10;99.90
1800;DHT22;919;48.274;12.292;2023-04-01T13:37:32;10.10;99.90
1800;DHT22;919;48.274;12.292;2023-04-01T13:40:23;10.10;99.90
1800;DHT22;919;48.274;12.292;2023-04-01T13:42:56;10.00;99.90
1800;DHT22;919;48.274;12.292;2023-04-01T13:45:27;9.90;99.90
1800;DHT22;919;48.274;12.292;2023-04-01T13:48:30;9.80;99.90
1800;DHT22;919;48.274;12.292;2023-04-01T13:54:22;9.60;99.90
1800;DHT22;919;48.274;12.292;2023-04-01T13:57:00;9.50;99.90
1800;DHT22;919;48.274;12.292;2023-04-01T14:02:50;9.30;99.90
1800;DHT22;919;48.274;12.292;2023-04-01T14:05:35;9.30;99.90
1800;DHT22;919;48.274;12.292;2023-04-01T14:08:20;9.30;99.90
1800;DHT22;919;48.274;12.292;2023-04-01T14:11:00;9.20;99.90
1800;DHT22;919;48.274;12.292;2023-04-01T14:13:33;9.10;99.90
1800;DHT22;919;48.274;12.292;2023-04-01T14:16:21;9.10;99.90
1800;DHT22;919;48.274;12.292;2023-04-01T14:19:03;9.10;99.90
1800;DHT22;919;48.274;12.292;2023-04-01T14:21:38;9.10;99.90
1800;DHT22;919;48.274;12.292;2023-04-01T14:24:35;9.10;99.90
1800;DHT22;919;48.274;12.292;2023-04-01T14:27:19;9.10;99.90
1800;DHT22;919;48.274;12.292;2023-04-01T14:29:59;9.00;99.90
1800;DHT22;919;48.274;12.292;2023-04-01T14:32:39;9.10;99.90
1800;DHT22;919;48.274;12.292;2023-04-01T14:35:27;9.10;99.90
1800;DHT22;919;48.274;12.292;2023-04-01T14:38:28;9.00;99.90
1800;DHT22;919;48.274;12.292;2023-04-01T14:41:11;9.10;99.90
1800;DHT22;919;48.274;12.292;2023-04-01T14:44:18;9.10;99.90
1800;DHT22;919;48.274;12.292;2023-04-01T14:47:28;9.10;99.90
1800;DHT22;919;48.274;12.292;2023-04-01T14:50:08;9.10;99.90
1800;DHT22;919;48.274;12.292;2023-04-01T14:52:38;9.20;99.90
1800;DHT22;919;48.274;12.292;2023-04-01T14:55:20;9.20;99.90
1800;DHT22;919;48.274;12.292;2023-04-01T14:57:58;9.20;99.90
1800;DHT22;919;48.274;12.292;2023-04-01T15:00:26;9.10;99.90
1800;DHT22;919;48.274;12.292;2023-04-01T15:02:58;9.20;99.90
1800;DHT22;919;48.274;12.292;2023-04-01T15:05:39;9.20;99.90
1800;DHT22;919;48.274;12.292;2023-04-01T15:08:16;9.20;99.90
1800;DHT22;919;48.274;12.292;2023-04-01T15:11:04;9.20;99.90
1800;DHT22;919;48.274;12.292;2023-04-01T15:13:58;9.30;99.90
1800;DHT22;919;48.274;12.292;2023-04-01T15:16:37;9.40;99.90
1800;DHT22;919;48.274;12.292;2023-04-01T15:19:16;9.40;99.90
1800;DHT22;919;48.274;12.292;2023-04-01T15:22:20;9.30;99.90
1800;DHT22;919;48.274;12.292;2023-04-01T15:25:17;9.20;99.90
1800;DHT22;919;48.274;12.292;2023-04-01T15:27:51;9.20;99.90
1800;DHT22;919;48.274;12.292;2023-04-01T15:30:32;9.30;99.90
1800;DHT22;919;48.274;12.292;2023-04-01T15:35:57;9.20;99.90
1800;DHT22;919;48.274;12.292;2023-04-01T15:38:36;9.30;99.90
1800;DHT22;919;48.274;12.292;2023-04-01T15:41:16;9.20;99.90
1800;DHT22;919;48.274;12.292;2023-04-01T15:43:47;9.20;99.90
1800;DHT22;919;48.274;12.292;2023-04-01T15:46:41;9.10;99.90
1800;DHT22;919;48.274;12.292;2023-04-01T15:49:19;9.20;99.90
1800;DHT22;919;48.274;12.292;2023-04-01T15:51:56;9.20;99.90
1800;DHT22;919;48.274;12.292;2023-04-01T15:54:32;9.20;99.90
1800;DHT22;919;48.274;12.292;2023-04-01T15:57:18;9.30;99.90
1800;DHT22;919;48.274;12.292;2023-04-01T16:02:46;9.20;99.90
1800;DHT22;919;48.274;12.292;2023-04-01T16:05:31;9.30;99.90
1800;DHT22;919;48.274;12.292;2023-04-01T16:08:37;9.30;99.90
1800;DHT22;919;48.274;12.292;2023-04-01T16:11:15;9.20;99.90
1800;DHT22;919;48.274;12.292;2023-04-01T16:13:53;9.20;99.90
1800;DHT22;919;48.274;12.292;2023-04-01T16:16:28;9.30;99.90
1800;DHT22;919;48.274;12.292;2023-04-01T16:19:12;9.30;99.90
1800;DHT22;919;48.274;12.292;2023-04-01T16:21:48;9.30;99.90
1800;DHT22;919;48.274;12.292;2023-04-01T16:24:22;9.30;99.90
1800;DHT22;919;48.274;12.292;2023-04-01T16:26:54;9.30;99.90
1800;DHT22;919;48.274;12.292;2023-04-01T16:29:30;9.30;99.90
1800;DHT22;919;48.274;12.292;2023-04-01T16:32:13;9.30;99.90
1800;DHT22;919;48.274;12.292;2023-04-01T16:34:44;9.30;99.90
1800;DHT22;919;48.274;12.292;2023-04-01T16:37:15;9.20;99.90
1800;DHT22;919;48.274;12.292;2023-04-01T16:39:47;9.30;99.90
1800;DHT22;919;48.274;12.292;2023-04-01T16:42:38;9.20;99.90
1800;DHT22;919;48.274;12.292;2023-04-01T16:45:19;9.20;99.90
1800;DHT22;919;48.274;12.292;2023-04-01T16:47:51;9.10;99.90
1800;DHT22;919;48.274;12.292;2023-04-01T16:50:22;9.10;99.90
1800;DHT22;919;48.274;12.292;2023-04-01T16:52:58;9.10;99.90
1800;DHT22;919;48.274;12.292;2023-04-01T16:55:35;9.10;99.90
1800;DHT22;919;48.274;12.292;2023-04-01T16:58:18;9.10;99.90
1800;DHT22;919;48.274;12.292;2023-04-01T17:00:49;9.20;99.90
1800;DHT22;919;48.274;12.292;2023-04-01T17:03:20;9.10;99.90
1800;DHT22;919;48.274;12.292;2023-04-01T17:05:55;9.00;99.90
1800;DHT22;919;48.274;12.292;2023-04-01T17:08:36;9.00;99.90
1800;DHT22;919;48.274;12.292;2023-04-01T17:11:11;9.00;99.90
1800;DHT22;919;48.274;12.292;2023-04-01T17:13:48;9.00;99.90
1800;DHT22;919;48.274;12.292;2023-04-01T17:19:32;9.00;99.90
1800;DHT22;919;48.274;12.292;2023-04-01T17:22:11;9.00;99.90
1800;DHT22;919;48.274;12.292;2023-04-01T17:24:50;9.00;99.90
1800;DHT22;919;48.274;12.292;2023-04-01T17:27:29;9.00;99.90
1800;DHT22;919;48.274;12.292;2023-04-01T17:30:18;9.10;99.90
1800;DHT22;919;48.274;12.292;2023-04-01T17:33:05;9.10;99.90
1800;DHT22;919;48.274;12.292;2023-04-01T17:35:40;9.00;99.90
1800;DHT22;919;48.274;12.292;2023-04-01T17:38:18;9.00;99.90
1800;DHT22;919;48.274;12.292;2023-04-01T17:40:59;9.00;99.90
1800;DHT22;919;48.274;12.292;2023-04-01T17:43:34;9.00;99.90
1800;DHT22;919;48.274;12.292;2023-04-01T17:46:19;9.10;99.90
1800;DHT22;919;48.274;12.292;2023-04-01T17:48:57;9.10;99.90
1800;DHT22;919;48.274;12.292;2023-04-01T17:51:32;9.10;99.90
1800;DHT22;919;48.274;12.292;2023-04-01T17:54:06;9.10;99.90
1800;DHT22;919;48.274;12.292;2023-04-01T17:56:48;9.00;99.90
1800;DHT22;919;48.274;12.292;2023-04-01T17:59:24;9.00;99.90
1800;DHT22;919;48.274;12.292;2023-04-01T18:02:02;9.10;99.90
1800;DHT22;919;48.274;12.292;2023-04-01T18:04:43;9.00;99.90
1800;DHT22;919;48.274;12.292;2023-04-01T18:07:37;8.90;99.90
1800;DHT22;919;48.274;12.292;2023-04-01T18:10:19;8.90;99.90
1800;DHT22;919;48.274;12.292;2023-04-01T18:13:11;8.90;99.90
1800;DHT22;919;48.274;12.292;2023-04-01T18:15:44;8.90;99.90
1800;DHT22;919;48.274;12.292;2023-04-01T18:21:10;8.90;99.90
1800;DHT22;919;48.274;12.292;2023-04-01T18:23:44;9.00;99.90
1800;DHT22;919;48.274;12.292;2023-04-01T18:26:18;9.00;99.90
1800;DHT22;919;48.274;12.292;2023-04-01T18:28:51;8.90;99.90
1800;DHT22;919;48.274;12.292;2023-04-01T18:31:20;8.90;99.90
1800;DHT22;919;48.274;12.292;2023-04-01T18:33:56;8.90;99.90